This site, now in its 15th season, is a labour of love and fun from one of Ottawa's most avid time trialists and number crunchers. It adheres to and is permitted by the laws of Canada, promotes the objectives of every bicycle club whose results are shown, and is donated free of charge by myself for your enjoyment and usage. If you would like results from series you ride in to be shown here, give me (celia@drmath.ca) a shout!


Index Page
ATT OTT WTT AATT CFCTT VVVTT
Help resultformat:
Case-sensitive

OBC Open TT Series - 1993-May-20 - 15km (Rockliffe Pkwy) (EvtFactor = 0.8905)

Weather (18:00): Mostly Cloudy. Temp.: 15.2C, Humidity: 50%, DewPoint: 4.7C, Wind: S 4km/h, Pressure: 99.17kPa, Visibility: 32.2km.
Weather (19:00): Mostly Cloudy. Temp.: 14.3C, Humidity: 55%, DewPoint: 5.3C, Wind: S 9km/h, Pressure: 99.20kPa, Visibility: 32.2km.
Weather (20:00): Mostly Cloudy. Temp.: 13.1C, Humidity: 61%, DewPoint: 5.8C, Wind: S 7km/h, Pressure: 99.20kPa, Visibility: 32.2km.

Send photos with description (when/where/what) of yourself on or off of bike to celia@drmath.ca

 
 

BESTS?
 
1 Large, John --- 20:11 44.591 1/60 OSEM 1/21 1.2542
2 Simpson, Bob OBC 20:55 43.028 2/60 OVBM 1/11 1.1425
3 Cowan, Norman  OBC 21:10 42.520 3/60 OVAM 1/14 1.1305
4 Fraser, Ian OBC 21:17 42.287 4/60 OSEM 2/21 1.2841
5 Nowak, Denis --- 21:21 42.155 5/60 OSEM 3/21  
6 Georgas, Chris OBC 21:25 42.023 6/60 OVBM 2/11 1.0070
7 Statchuk, Craig OBC 21:28 41.925 7/60 OVAM 2/14 1.0593
8 Hinz, Richard OBC 21:34 41.731 8/60 OVAM 3/14 1.0663
9 Burge, Craig  --- 21:45 41.379 9/60 OSEM 4/21 1.0349
10 Martignago, Mike OBC 21:53 41.127 10/60 OSEM 5/21 1.1737
11 Buffa, Alex  OBC 21:56 41.033 11/60 OSEM 6/21 1.1135
12 Moerman, Bram  OBC 21:58 40.971 12/60 OVBM 3/11 1.0533
13 Morvan, Jacques  OBC 22:07 40.693 13/60 OVBM 4/11 1.1247
14 St-Amour, Pierre OBC 22:08 40.663 14/60 OVAM 4/14 0.9843
15 Jensen, Prapti OBC 22:22 40.238 15/60 OSEF 1/4 1.2022
16 Archambault, Marc --- 22:24 40.179 16/60 OSEM 7/21  
17 Thompson, Grant OBC 22:36 39.823 17/60 OSEM 8/21 0.9457
18 Budd, Daniel OBC 22:37 39.794 18/60 OSEM 9/21 1.0771
19 Roy, Marc OBC 22:39 39.735 19/60 OSEM 10/21 1.2527
20 MacDonald, Ryan OBC 22:44 39.589 20/60 OSEM 11/21 0.9291
21 Gould, Rob OBC 22:49 39.445 21/60 OVAM 5/14 1.0926
22 Pomeroy, Steve OBC 23:07 38.933 22/60 OVAM 6/14 1.0328
23 Beasley, Graham --- 23:10 38.849 23/60 OVBM 5/11 0.9638
24 Callahan, Luc OBC 23:22 38.516 24/60 OSEM 12/21  
Lage, Rick --- 23:22 38.516 24/60 OSEM 12/21  
26 Bowring, John --- 23:37 38.109 26/60 OJUM 1/6 0.9832
27 Heffler, Paul OBC 23:45 37.895 27/60 OSEM 14/21 1.0978
28 Tamborine, Don OBC 23:46 37.868 28/60 OVBM 6/11 1.0319
29 Atkins, Brent --- 23:47 37.842 29/60 OSEM 15/21 0.9444
30 Austen, Ian  OBC 23:55 37.631 30/60 OVAM 7/14 1.4388
Ménard, Monique OBC 23:55 37.631 30/60 OSEF 2/4 1.0971
32 Shadeed, Charles OBC 23:56 37.604 32/60 OVAM 8/14 1.1238
33 Georgekish-Watt, Yanik --- 23:59 37.526 33/60 OJUM 2/6 0.9169
34 Smallwood, Steve OBC 24:06 37.344 34/60 OVAM 9/14 1.0787
35 Sabourin, Marc-André OBC 24:34 36.635 35/60 OSEM 16/21  
36 Romkey, Gary OBC 24:38 36.536 36/60 OVBM 7/11  
37 Hartry, Corey --- 24:40 36.486 37/60 OCAM 1/1 1.1026
38 Montpetit, Stephane OBC 24:50 36.242 38/60 OSEM 17/21 0.8402
Snow, David --- 24:50 36.242 38/60 OSEM 17/21  
40 Soucy, Dominic OBC 24:54 36.145 40/60 OJUM 3/6 1.2585
41 Somogyi, Michel OBC 24:59 36.024 41/60 OJUM 4/6 1.3215
42 Davison, Peter OBC 25:09 35.785 42/60 OVBM 8/11  
Paterson, Gail OBC 25:09 35.785 42/60 OSEF 3/4  
44 Hollywood, Rudy --- 25:12 35.714 44/60 OVBM 9/11  
45 McInnis, Celia  OBC 25:14 35.667 45/60 OVAF 1/1 1.0019
46 Winter, Andrew OBC 25:32 35.248 46/60 OSEM 19/21  
47 Paterson, Mary OBC 25:43 34.997 47/60 OSEF 4/4  
48 Caron, Vianney OBC 26:00 34.615 48/60 OVAM 10/14 1.3333
Mahoney, Elwood --- 26:00 34.615 48/60 OVBM 10/11  
50 Ajersch, Mary  OBC 26:26 34.048 50/60 OVBF 1/2 1.0578
51 Callum, John OBC 26:31 33.941 51/60 OJUM 5/6 1.4871
52 Pascoe, Barry --- 26:40 33.750 52/60 OVAM 11/14  
53 Hurst, Ron OBC 27:03 33.272 53/60 OVBM 11/11 1.0680
54 Labelle, Denis OBC 27:04 33.251 54/60 OVAM 12/14 1.1389
55 Brisson, Pascal OBC 27:19 32.947 55/60 OSEM 20/21  
56 Woods, Bob  OBC 27:34 32.648 56/60 OVAM 13/14 1.0953
57 McGovern, Farrell OBC 28:18 31.802 57/60 OVAM 14/14  
58 Fortey, Brian OBC 28:24 31.690 58/60 OJUM 6/6 1.0832
59 Mutart, James --- 29:25 30.595 59/60 OSEM 21/21  
60 Winter, Linda OBC 34:17 26.252 60/60 OVBF 2/2 1.3001
 
Average Speed of all of the above 60 finishes (900km in 24:13:31):37.151
>>>Average of the Average Speeds for these 60 finishes37.502<<<
 

The number of data records shown above is 60
The server processing of your query took: 0 wallclock secs ( 0.08 usr + 0.00 sys = 0.08 CPU)

Thanks to our Helpers: Brendan Leith, Jim Jenkins, Bruce Callum, Keith Mahoney, Eric Roy.

     


Apr 9 (Good Friday) Apr 15 Apr 22 (cancelled) Apr 27 Apr 29
May 4 (10km) May 6 May 11 May 11 (10km) May 13 (22km) May 16 (40km) May 18 May 18 (10km)
  May 20  
May 25 May 25 (10km) May 27 (38km) May 30 (40km)
Jun 1 Jun 3 Jun 8 Jun 10 (22km) Jun 15 Jun 17 Jun 22 Jun 22 Jun 24 (38km) Jun 25 Jun 27 (40km/80km) Jun 29 Jun 29 Jun 30
Jul 6 Jul 6 Jul 8 Jul 13 Jul 13 Jul 15 (38km) Jul 20 Jul 20 Jul 22 Jul 25 (80km) Jul 27 Jul 29 (22km)
Aug 3 Aug 3 Aug 5 Aug 7 (38km) Aug 10 Aug 10 Aug 12 Aug 15 (40km/80km) Aug 17 Aug 19 Aug 21 (22km) Aug 24 Aug 24 Aug 26 Aug 29 (40km) Aug 31 (Invitational)
Sep 2 Sep 7 Sep 9 Sep 14 Sep 16 Sep 25 (40km)

OTT Rankings
Best       Best by category
WTT Rankings for OBC Members
5 Best 15km     5 Best 15km by category
OBC Member Best Three 15km Rankings
Overall     by category
OBC BAR Ranking
Overall     by category     Rider "Consistency-Graph"
ABC BAR Ranking
Overall     by category     Rider "Consistency-Graph"
Other years
TT Calculator All TT People All TT events
ABC Home VVV Home
CKAP GOLD MEDAL
Other Links

Please send your comments and suggestions to: Celia McInnis
Copyright © 1998-2011 Celia McInnis. All rights reserved. Links are welcomed.